Time;durP1;ratioP1;P1;durP2;ratioP2;P2;SDS_P1;SDS_P2;PMS_P1;PMS_P2;Temp;Humidity;BMP_temperature;BMP_pressure;BME280_temperature;BME280_humidity;BME280_pressure;Samples;Min_cycle;Max_cycle;Signal;HPM_P1;HPM_P2
2022/01/27 00:01:37;;;;;;;10.73;8.52;;;16.70;49.00;;;;;;4892558;28;98885;-69
2022/01/27 00:04:15;;;;;;;13.73;9.02;;;16.70;48.90;;;;;;4891630;28;98359;-69
2022/01/27 00:06:42;;;;;;;10.25;8.40;;;16.80;48.90;;;;;;4892564;28;99580;-69
2022/01/27 00:09:15;;;;;;;10.50;8.15;;;16.80;48.80;;;;;;4892482;28;98907;-69
2022/01/27 00:11:44;;;;;;;10.20;8.10;;;16.80;48.70;;;;;;4892657;28;99560;-70
2022/01/27 00:14:11;;;;;;;10.15;7.60;;;16.80;48.60;;;;;;4892197;28;98618;-69
2022/01/27 00:16:41;;;;;;;11.35;8.23;;;16.80;48.60;;;;;;4892148;28;99718;-69
2022/01/27 00:19:09;;;;;;;10.50;7.57;;;16.80;48.50;;;;;;4891255;28;98727;-69
2022/01/27 00:21:37;;;;;;;8.75;7.72;;;16.90;48.50;;;;;;4891923;28;99728;-69
2022/01/27 00:24:03;;;;;;;9.77;7.88;;;16.90;48.40;;;;;;4891638;28;99637;-71
2022/01/27 00:26:29;;;;;;;10.00;7.55;;;16.90;48.30;;;;;;4891200;28;99124;-69
2022/01/27 00:28:54;;;;;;;10.32;7.35;;;16.90;48.40;;;;;;4891126;28;98919;-69
2022/01/27 00:31:22;;;;;;;11.45;7.85;;;16.90;48.30;;;;;;4891934;28;99039;-69
2022/01/27 00:33:49;;;;;;;10.98;7.78;;;16.90;48.30;;;;;;4891727;28;99274;-70
2022/01/27 00:36:15;;;;;;;11.30;7.53;;;16.90;48.30;;;;;;4891351;28;100104;-69
2022/01/27 00:38:41;;;;;;;9.07;7.15;;;16.90;48.20;;;;;;4890711;28;99395;-69
2022/01/27 00:41:07;;;;;;;9.77;7.60;;;16.90;48.10;;;;;;4890751;28;99218;-69
2022/01/27 00:43:33;;;;;;;9.25;7.22;;;16.90;48.10;;;;;;4890774;28;98638;-69
2022/01/27 00:45:59;;;;;;;9.60;6.97;;;16.90;48.10;;;;;;4891038;28;99065;-69
2022/01/27 00:48:25;;;;;;;9.35;6.95;;;16.90;48.00;;;;;;4890846;28;99013;-69
2022/01/27 00:50:59;;;;;;;10.88;6.90;;;16.90;48.00;;;;;;4891524;28;98949;-69
2022/01/27 00:55:51;;;;;;;10.30;7.43;;;16.90;47.90;;;;;;4890450;28;99029;-70
2022/01/27 00:58:35;;;;;;;9.82;6.63;;;17.00;47.90;;;;;;4890740;28;100709;-70
2022/01/27 01:01:07;;;;;;;8.40;6.80;;;16.90;47.80;;;;;;4890762;28;99401;-69
2022/01/27 01:03:37;;;;;;;10.85;6.65;;;16.90;47.80;;;;;;4891437;28;98982;-69
2022/01/27 01:06:19;;;;;;;9.20;6.75;;;17.00;47.90;;;;;;4890739;28;100213;-69
2022/01/27 01:14:27;;;;;;;9.80;6.90;;;16.90;47.60;;;;;;4891230;28;98933;-69
2022/01/27 01:30:33;;;;;;;8.05;6.32;;;17.00;47.70;;;;;;4895545;28;99206;-69
2022/01/27 01:32:51;;;;;;;9.88;6.65;;;16.90;47.60;;;;;;4894661;28;98619;-68
2022/01/27 01:35:26;;;;;;;8.52;6.43;;;16.90;47.60;;;;;;4892092;28;98612;-69
2022/01/27 01:37:52;;;;;;;10.25;6.97;;;16.90;47.50;;;;;;4890846;28;100288;-68
2022/01/27 01:40:18;;;;;;;9.48;6.93;;;16.90;47.50;;;;;;4891874;28;100002;-69
2022/01/27 01:42:45;;;;;;;10.23;6.45;;;16.90;47.50;;;;;;4890645;28;99039;-68
2022/01/27 01:45:13;;;;;;;9.77;6.65;;;16.90;47.50;;;;;;4890992;28;97852;-69
2022/01/27 01:47:40;;;;;;;10.15;6.63;;;16.90;47.40;;;;;;4890219;28;99145;-69
2022/01/27 01:50:08;;;;;;;10.18;6.82;;;16.90;47.50;;;;;;4870729;28;99216;-69
2022/01/27 01:52:34;;;;;;;9.93;7.00;;;16.90;47.40;;;;;;4889643;28;99647;-67
2022/01/27 01:55:01;;;;;;;9.80;6.95;;;17.00;47.50;;;;;;4890203;28;99119;-69
2022/01/27 01:57:27;;;;;;;8.05;6.47;;;16.90;47.40;;;;;;4889286;28;99157;-69
2022/01/27 01:59:53;;;;;;;9.75;6.75;;;16.90;47.40;;;;;;4890316;28;99235;-69
2022/01/27 02:02:19;;;;;;;9.40;6.53;;;16.90;47.40;;;;;;4890770;28;98645;-70
2022/01/27 02:04:45;;;;;;;9.00;6.47;;;16.90;47.40;;;;;;4890231;28;98496;-69
2022/01/27 02:07:44;;;;;;;9.50;6.80;;;16.90;47.40;;;;;;4889951;28;99685;-69
2022/01/27 02:10:29;;;;;;;9.77;6.90;;;16.90;47.40;;;;;;4889576;28;100324;-69
2022/01/27 02:18:27;;;;;;;8.27;6.57;;;16.90;47.60;;;;;;4858209;28;99732;-69
2022/01/27 02:20:53;;;;;;;8.45;6.90;;;16.90;47.60;;;;;;4889433;28;99374;-69
2022/01/27 02:23:20;;;;;;;9.55;6.65;;;16.80;47.50;;;;;;4890546;28;99179;-69
2022/01/27 02:25:45;;;;;;;7.63;5.95;;;16.90;47.50;;;;;;4889480;28;98471;-70
2022/01/27 02:28:11;;;;;;;8.55;6.80;;;16.80;47.60;;;;;;4889854;28;99109;-69
2022/01/27 02:30:37;;;;;;;9.30;6.75;;;16.80;47.50;;;;;;4889587;28;99384;-70
2022/01/27 02:33:03;;;;;;;8.73;6.43;;;16.80;47.60;;;;;;4889933;28;98812;-70
2022/01/27 02:35:32;;;;;;;9.73;7.05;;;16.80;47.60;;;;;;4890538;28;98358;-69
2022/01/27 02:37:58;;;;;;;7.57;6.47;;;16.80;47.60;;;;;;4889813;28;99071;-69
2022/01/27 02:40:38;;;;;;;8.02;6.50;;;16.80;47.60;;;;;;4889727;28;99912;-70
2022/01/27 02:43:04;;;;;;;8.63;6.85;;;16.80;47.60;;;;;;4889172;28;99555;-69
2022/01/27 02:45:40;;;;;;;10.48;7.05;;;16.80;47.70;;;;;;4889507;28;99051;-69
2022/01/27 02:48:06;;;;;;;9.07;6.63;;;16.80;47.60;;;;;;4888962;28;100314;-69
2022/01/27 02:50:31;;;;;;;9.77;7.60;;;16.70;47.60;;;;;;4889296;28;99094;-69
2022/01/27 02:52:57;;;;;;;10.75;6.60;;;16.80;47.70;;;;;;4889657;28;99060;-70
2022/01/27 02:55:23;;;;;;;10.07;7.18;;;16.80;47.70;;;;;;4888783;28;99042;-70
2022/01/27 02:57:48;;;;;;;9.32;7.28;;;16.70;47.70;;;;;;4887460;28;99556;-70
2022/01/27 03:00:15;;;;;;;10.02;6.72;;;16.80;47.80;;;;;;4890762;28;100297;-69
2022/01/27 03:02:40;;;;;;;9.95;6.65;;;16.70;47.70;;;;;;4893014;28;98929;-69
2022/01/27 03:05:06;;;;;;;8.70;6.65;;;16.70;47.70;;;;;;4892160;28;98686;-69
2022/01/27 03:07:32;;;;;;;9.70;7.25;;;16.70;47.80;;;;;;4891512;28;99934;-69
2022/01/27 03:09:57;;;;;;;9.48;7.13;;;16.70;47.80;;;;;;4892187;28;100419;-70
2022/01/27 03:12:26;;;;;;;8.68;7.13;;;16.70;47.80;;;;;;4892202;28;99048;-69
2022/01/27 03:14:52;;;;;;;10.10;7.22;;;16.70;47.70;;;;;;4892367;28;99064;-69
2022/01/27 03:17:18;;;;;;;9.60;6.80;;;16.70;47.70;;;;;;4891136;28;99184;-69
2022/01/27 03:19:43;;;;;;;9.32;6.80;;;16.70;47.70;;;;;;4892672;28;99390;-69
2022/01/27 03:22:10;;;;;;;8.90;7.00;;;16.70;47.60;;;;;;4892975;28;98623;-69
2022/01/27 03:24:36;;;;;;;9.57;6.93;;;16.70;47.60;;;;;;4892924;28;98171;-69
2022/01/27 03:27:07;;;;;;;7.43;6.25;;;16.70;47.60;;;;;;4892107;28;101098;-70
2022/01/27 03:29:32;;;;;;;9.98;7.00;;;16.70;47.70;;;;;;4892909;28;99757;-69
2022/01/27 03:31:59;;;;;;;9.30;7.38;;;16.70;47.60;;;;;;4891669;28;100171;-69
2022/01/27 03:34:25;;;;;;;11.48;7.07;;;16.70;47.60;;;;;;4892199;28;99012;-69
2022/01/27 03:36:51;;;;;;;10.45;7.15;;;16.70;47.50;;;;;;4891730;28;100746;-69
2022/01/27 03:39:19;;;;;;;10.15;6.97;;;16.70;47.50;;;;;;4891558;28;99588;-69
2022/01/27 03:41:50;;;;;;;9.65;7.45;;;16.70;47.50;;;;;;4892642;28;99020;-69
2022/01/27 03:44:16;;;;;;;8.63;6.97;;;16.70;47.50;;;;;;4891845;28;98676;-69
2022/01/27 03:46:42;;;;;;;9.68;7.28;;;16.70;47.50;;;;;;4891692;28;99238;-70
2022/01/27 03:49:07;;;;;;;10.60;6.93;;;16.70;47.40;;;;;;4890783;28;101627;-70
2022/01/27 03:51:33;;;;;;;9.73;7.40;;;16.70;47.50;;;;;;4892589;28;99427;-71
2022/01/27 03:53:58;;;;;;;8.32;6.75;;;16.70;47.50;;;;;;4891853;28;99160;-70
2022/01/27 03:56:24;;;;;;;9.43;6.82;;;16.70;47.40;;;;;;4891400;28;100440;-70
2022/01/27 03:58:50;;;;;;;10.50;7.40;;;16.70;47.50;;;;;;4890684;28;99594;-70
2022/01/27 05:43:57;;;;;;;7.53;4.60;;;18.40;44.60;;;;;;5008056;22;102711;-68
2022/01/27 05:46:22;;;;;;;7.55;4.80;;;18.30;44.60;;;;;;4986817;28;101383;-69
2022/01/27 05:48:48;;;;;;;8.93;4.80;;;18.30;44.60;;;;;;4987569;28;99452;-68
2022/01/27 05:51:14;;;;;;;6.25;4.50;;;18.40;44.80;;;;;;4986721;28;99009;-70
2022/01/27 05:53:41;;;;;;;9.18;5.10;;;18.30;44.70;;;;;;4987450;28;98669;-68
2022/01/27 05:56:07;;;;;;;7.30;4.80;;;18.30;44.80;;;;;;4987860;28;100402;-69
2022/01/27 05:58:33;;;;;;;7.50;4.70;;;18.30;44.80;;;;;;4987777;28;99204;-69
2022/01/27 06:00:59;;;;;;;6.25;4.35;;;18.30;44.90;;;;;;4987693;28;98949;-68
2022/01/27 06:03:24;;;;;;;8.95;4.35;;;18.30;44.90;;;;;;4987945;28;98156;-69
2022/01/27 06:05:50;;;;;;;7.10;4.50;;;18.30;45.10;;;;;;4988207;28;100158;-69
2022/01/27 06:08:16;;;;;;;6.80;4.40;;;18.30;45.10;;;;;;4987683;28;106469;-69
2022/01/27 06:10:41;;;;;;;6.85;4.38;;;18.40;45.20;;;;;;4989205;28;99322;-72
2022/01/27 06:13:08;;;;;;;6.80;4.43;;;18.40;45.20;;;;;;4989925;28;99196;-70
2022/01/27 06:15:34;;;;;;;7.05;4.57;;;18.40;45.30;;;;;;4989182;28;99748;-69
2022/01/27 06:18:00;;;;;;;11.43;4.72;;;18.30;45.50;;;;;;4986621;28;98800;-69
2022/01/27 06:20:28;;;;;;;7.22;4.28;;;18.30;45.80;;;;;;4988046;28;98705;-70
2022/01/27 06:22:59;;;;;;;6.47;4.50;;;18.30;46.20;;;;;;4988160;28;98899;-68
2022/01/27 06:25:26;;;;;;;7.15;4.80;;;18.30;46.20;;;;;;4986271;28;100273;-69
2022/01/27 06:27:53;;;;;;;7.85;4.65;;;18.30;46.50;;;;;;4988076;28;99296;-69
2022/01/27 06:30:19;;;;;;;5.97;4.40;;;18.20;46.60;;;;;;4987618;28;98985;-70
2022/01/27 06:32:45;;;;;;;6.45;4.53;;;18.20;46.60;;;;;;4987898;28;98635;-70
2022/01/27 06:35:11;;;;;;;7.93;4.68;;;18.10;46.70;;;;;;4985089;28;99838;-70
2022/01/27 06:37:37;;;;;;;8.10;4.45;;;18.10;46.80;;;;;;4986573;28;101907;-69
2022/01/27 06:40:05;;;;;;;8.88;4.90;;;18.10;46.90;;;;;;4985652;28;99329;-70
2022/01/27 06:42:30;;;;;;;7.00;4.68;;;18.00;46.90;;;;;;4986991;28;99083;-70
2022/01/27 06:44:56;;;;;;;8.93;5.18;;;18.00;46.90;;;;;;4985906;28;100274;-71
2022/01/27 06:47:22;;;;;;;6.90;5.03;;;17.90;46.90;;;;;;4986625;28;101177;-70
2022/01/27 06:49:47;;;;;;;8.20;4.85;;;17.90;47.00;;;;;;4987117;28;99052;-71
2022/01/27 06:52:13;;;;;;;6.50;4.82;;;17.80;47.00;;;;;;4987262;28;98310;-69
2022/01/27 06:54:39;;;;;;;8.55;4.95;;;17.80;47.10;;;;;;4986357;28;99035;-72
2022/01/27 06:57:05;;;;;;;6.90;4.85;;;17.70;47.10;;;;;;4986089;28;98656;-70
2022/01/27 06:59:32;;;;;;;12.02;5.53;;;17.70;47.30;;;;;;4986481;28;100364;-69
2022/01/27 07:01:57;;;;;;;7.90;5.20;;;17.60;47.40;;;;;;4986816;28;99043;-71
2022/01/27 07:04:23;;;;;;;8.23;5.32;;;17.60;47.60;;;;;;4985508;28;99755;-70
2022/01/27 07:06:51;;;;;;;9.10;5.30;;;17.60;47.80;;;;;;4986519;28;99300;-69
2022/01/27 07:09:17;;;;;;;11.75;5.15;;;17.50;48.10;;;;;;4986290;28;98552;-70
2022/01/27 07:11:43;;;;;;;8.90;5.20;;;17.50;48.50;;;;;;4986675;28;98818;-71
2022/01/27 07:14:09;;;;;;;12.30;5.22;;;17.50;48.90;;;;;;4986370;28;98584;-71
2022/01/27 07:16:35;;;;;;;9.32;5.30;;;17.50;49.30;;;;;;4985195;28;99561;-70
2022/01/27 07:19:01;;;;;;;10.23;5.30;;;17.40;49.40;;;;;;4985168;28;98993;-71
2022/01/27 07:21:27;;;;;;;16.13;5.68;;;17.40;49.60;;;;;;4985796;28;98879;-69
2022/01/27 07:23:53;;;;;;;10.23;5.20;;;17.40;49.60;;;;;;4984287;28;100694;-69
2022/01/27 07:26:25;;;;;;;9.85;5.05;;;17.40;49.90;;;;;;4985713;28;104264;-68
2022/01/27 07:28:53;;;;;;;13.77;5.18;;;17.30;50.20;;;;;;4985749;28;99008;-69
2022/01/27 07:31:19;;;;;;;11.60;5.40;;;17.20;50.10;;;;;;4987553;28;98673;-69
2022/01/27 07:33:47;;;;;;;9.73;4.72;;;17.20;50.20;;;;;;4986377;28;99355;-68
2022/01/27 07:36:15;;;;;;;9.88;5.35;;;17.20;50.20;;;;;;4987533;28;99042;-69
2022/01/27 07:38:41;;;;;;;8.60;5.60;;;17.10;50.20;;;;;;4971003;28;99039;-69
2022/01/27 07:41:06;;;;;;;11.07;5.00;;;17.10;50.30;;;;;;4989812;28;97821;-67
2022/01/27 07:43:32;;;;;;;10.80;4.80;;;17.00;50.20;;;;;;4987200;28;107189;-68
2022/01/27 07:45:59;;;;;;;8.88;5.18;;;17.00;50.30;;;;;;4987340;28;98853;-68
2022/01/27 07:48:28;;;;;;;9.38;4.82;;;17.00;50.30;;;;;;4988414;28;99294;-69
2022/01/27 07:50:53;;;;;;;12.73;4.95;;;16.90;50.30;;;;;;4990090;28;98883;-69
2022/01/27 07:53:21;;;;;;;9.95;4.70;;;16.90;50.50;;;;;;4988924;28;99397;-69
2022/01/27 07:55:47;;;;;;;10.57;5.05;;;16.90;50.40;;;;;;4989327;28;99829;-69
2022/01/27 07:58:13;;;;;;;7.40;4.25;;;16.80;50.40;;;;;;4989275;28;98694;-67
2022/01/27 08:00:40;;;;;;;8.70;4.78;;;16.80;50.40;;;;;;4989741;28;99081;-69
2022/01/27 08:03:05;;;;;;;8.25;4.65;;;16.80;50.50;;;;;;4988648;28;100570;-68
2022/01/27 08:05:31;;;;;;;10.60;4.40;;;16.80;50.50;;;;;;4971917;28;100045;-69
2022/01/27 08:07:58;;;;;;;8.52;4.95;;;16.80;50.40;;;;;;4989880;28;98868;-68
2022/01/27 08:10:25;;;;;;;9.52;4.75;;;16.80;50.40;;;;;;4989534;28;98968;-69
2022/01/27 08:12:51;;;;;;;9.75;4.68;;;16.80;50.40;;;;;;4988778;28;101382;-68
2022/01/27 08:15:22;;;;;;;10.80;4.95;;;16.80;50.40;;;;;;4989550;28;103395;-67
2022/01/27 08:17:48;;;;;;;7.30;4.60;;;16.80;50.40;;;;;;4989701;28;98586;-69
2022/01/27 08:20:14;;;;;;;9.68;4.38;;;16.80;50.40;;;;;;4989577;28;99047;-67
2022/01/27 08:22:43;;;;;;;8.60;4.38;;;16.90;50.30;;;;;;4988894;28;99212;-68
2022/01/27 08:25:10;;;;;;;8.55;4.28;;;16.90;50.20;;;;;;4988594;28;100702;-68
2022/01/27 08:27:38;;;;;;;7.95;4.32;;;16.90;50.20;;;;;;4989272;28;98701;-69
2022/01/27 08:30:05;;;;;;;7.50;4.50;;;16.90;50.20;;;;;;4989430;28;98213;-70
2022/01/27 08:33:07;;;;;;;16.02;4.70;;;16.90;50.10;;;;;;4988324;28;100202;-68
2022/01/27 08:35:24;;;;;;;7.90;3.93;;;16.90;50.00;;;;;;4984945;28;100412;-68
2022/01/27 08:37:52;;;;;;;5.88;3.97;;;16.90;50.00;;;;;;4988692;28;99809;-69
2022/01/27 08:40:18;;;;;;;8.65;4.50;;;16.90;50.00;;;;;;4989122;28;99186;-69
2022/01/27 08:42:44;;;;;;;10.77;4.28;;;17.00;50.00;;;;;;4987701;28;100153;-69
2022/01/27 08:45:12;;;;;;;9.40;4.53;;;17.00;49.90;;;;;;4987454;28;98793;-69
2022/01/27 08:47:39;;;;;;;7.10;4.25;;;17.00;49.80;;;;;;4970243;28;100786;-68
2022/01/27 08:50:07;;;;;;;8.57;4.32;;;17.00;50.90;;;;;;4987847;28;98682;-69
2022/01/27 08:52:34;;;;;;;9.18;4.13;;;17.00;49.80;;;;;;4988884;28;100660;-70
2022/01/27 08:55:00;;;;;;;8.68;4.80;;;17.00;49.80;;;;;;4988267;28;98802;-70
2022/01/27 08:57:25;;;;;;;6.70;4.35;;;17.00;49.80;;;;;;4988927;28;99153;-68
2022/01/27 08:59:53;;;;;;;8.55;3.83;;;17.00;49.80;;;;;;4988046;28;99165;-70
2022/01/27 09:02:20;;;;;;;7.13;4.10;;;17.00;49.80;;;;;;4988441;28;99696;-69
2022/01/27 09:04:47;;;;;;;8.25;3.92;;;17.00;49.80;;;;;;4987142;28;99595;-69
2022/01/27 09:07:15;;;;;;;6.13;3.80;;;17.00;49.80;;;;;;4988259;28;99190;-69
2022/01/27 09:09:42;;;;;;;7.63;4.00;;;17.00;49.70;;;;;;4987455;28;99130;-68
2022/01/27 09:12:09;;;;;;;7.10;3.92;;;17.00;49.70;;;;;;4987504;28;100101;-68
2022/01/27 09:14:35;;;;;;;8.27;3.80;;;17.00;49.70;;;;;;4987756;28;98780;-68
2022/01/27 09:17:00;;;;;;;7.85;3.85;;;17.00;49.70;;;;;;4988324;28;98578;-68
2022/01/27 09:19:28;;;;;;;6.32;3.72;;;17.00;49.70;;;;;;4989811;28;98489;-68
2022/01/27 09:21:56;;;;;;;7.88;3.95;;;17.00;49.80;;;;;;4989844;28;100727;-67
2022/01/27 09:24:36;;;;;;;6.30;3.40;;;17.00;49.80;;;;;;4989812;28;99871;-67
2022/01/27 09:27:02;;;;;;;7.82;3.92;;;17.00;50.80;;;;;;4989420;28;99805;-69
2022/01/27 09:29:28;;;;;;;6.57;3.90;;;17.00;49.80;;;;;;4990037;28;99077;-69
2022/01/27 09:31:54;;;;;;;8.60;3.95;;;17.00;49.80;;;;;;4987257;28;100173;-67
2022/01/27 09:34:20;;;;;;;7.45;3.90;;;16.90;49.80;;;;;;4987397;28;99090;-69
2022/01/27 09:36:53;;;;;;;7.25;3.60;;;17.00;49.90;;;;;;4987173;28;99142;-68
2022/01/27 09:39:20;;;;;;;6.40;3.42;;;16.90;50.00;;;;;;4987806;28;99887;-69
2022/01/27 09:41:49;;;;;;;7.03;3.60;;;16.90;50.00;;;;;;4969643;28;100677;-69
2022/01/27 09:44:15;;;;;;;6.78;3.88;;;16.90;50.00;;;;;;4986457;28;99135;-69
2022/01/27 09:46:44;;;;;;;6.57;3.63;;;16.90;50.10;;;;;;4987049;28;98642;-69
2022/01/27 09:49:17;;;;;;;8.13;3.80;;;16.90;50.00;;;;;;4987021;28;98888;-68
2022/01/27 09:51:45;;;;;;;9.55;3.70;;;16.90;50.00;;;;;;4986840;28;99910;-69
2022/01/27 09:54:14;;;;;;;8.57;3.28;;;16.90;50.10;;;;;;4986870;28;100611;-69
2022/01/27 09:56:40;;;;;;;7.85;3.40;;;16.90;50.10;;;;;;4987095;28;98654;-69
2022/01/27 09:59:07;;;;;;;6.78;3.60;;;16.90;50.10;;;;;;4988442;28;98644;-69
2022/01/27 10:01:33;;;;;;;8.68;3.60;;;16.80;50.10;;;;;;4986657;28;99887;-69
2022/01/27 10:04:05;;;;;;;6.78;3.65;;;16.90;50.20;;;;;;4987492;28;99173;-68
2022/01/27 10:06:33;;;;;;;7.50;3.50;;;16.80;50.20;;;;;;4987335;28;100412;-69
2022/01/27 10:09:19;;;;;;;8.82;3.92;;;16.80;50.20;;;;;;4986015;28;98305;-70
2022/01/27 10:11:50;;;;;;;7.72;3.28;;;16.80;50.20;;;;;;4987437;28;99694;-70
2022/01/27 10:14:27;;;;;;;9.48;3.60;;;16.80;50.30;;;;;;4986422;28;100341;-69
2022/01/27 10:17:00;;;;;;;7.28;3.45;;;16.80;50.30;;;;;;4987938;28;99851;-69
2022/01/27 10:19:26;;;;;;;6.72;3.45;;;16.80;50.40;;;;;;4987602;28;98777;-70
2022/01/27 10:22:00;;;;;;;7.22;3.20;;;16.80;50.40;;;;;;4986617;28;100482;-70
2022/01/27 10:24:29;;;;;;;8.55;3.30;;;16.80;50.60;;;;;;4987616;28;99808;-69
2022/01/27 10:27:20;;;;;;;5.90;3.15;;;16.80;50.50;;;;;;4987541;28;98643;-69
2022/01/27 10:32:37;;;;;;;7.80;3.13;;;16.80;50.60;;;;;;4985444;28;99183;-68
2022/01/27 10:35:04;;;;;;;6.05;3.55;;;16.80;50.60;;;;;;4987400;28;98634;-69
2022/01/27 10:38:01;;;;;;;5.40;3.00;;;16.80;50.60;;;;;;4987267;28;98976;-69
2022/01/27 10:40:28;;;;;;;7.78;3.20;;;16.80;50.60;;;;;;4986437;28;98643;-69
2022/01/27 10:43:10;;;;;;;5.70;3.17;;;16.80;50.60;;;;;;4986921;28;100458;-69
2022/01/27 10:45:40;;;;;;;10.00;3.50;;;16.80;50.70;;;;;;4986129;28;100796;-70
2022/01/27 10:48:21;;;;;;;7.25;2.97;;;16.80;50.90;;;;;;4986650;28;99084;-68
2022/01/27 10:50:56;;;;;;;8.05;3.03;;;16.80;51.10;;;;;;4986589;28;99028;-70
2022/01/27 10:53:23;;;;;;;7.68;3.20;;;16.80;51.00;;;;;;4987350;28;100729;-69
2022/01/27 10:56:05;;;;;;;7.75;3.17;;;16.80;51.20;;;;;;4986262;28;100249;-69
2022/01/27 10:58:34;;;;;;;9.23;3.60;;;16.90;52.50;;;;;;4988335;28;98639;-69
2022/01/27 11:01:00;;;;;;;6.65;2.80;;;16.90;51.30;;;;;;4986992;28;97928;-69
2022/01/27 11:03:27;;;;;;;5.47;3.08;;;17.00;51.10;;;;;;4988189;28;99084;-68
2022/01/27 11:05:56;;;;;;;6.05;2.92;;;17.10;50.80;;;;;;4988295;28;98756;-68
2022/01/27 11:08:36;;;;;;;6.63;2.70;;;17.30;50.50;;;;;;4988787;28;101750;-69
2022/01/27 11:11:03;;;;;;;5.57;2.53;;;17.60;50.20;;;;;;4991844;28;98662;-69
2022/01/27 11:13:30;;;;;;;7.45;2.58;;;17.80;49.80;;;;;;4971228;28;102167;-69
2022/01/27 11:15:56;;;;;;;5.32;2.65;;;17.90;49.30;;;;;;4989537;28;99469;-69
2022/01/27 11:18:24;;;;;;;6.72;2.60;;;18.00;50.10;;;;;;4987606;28;99160;-69
2022/01/27 11:20:57;;;;;;;6.82;2.78;;;18.20;48.80;;;;;;4986738;28;98951;-69
2022/01/27 11:26:16;;;;;;;6.07;2.78;;;18.30;48.50;;;;;;4988540;28;98379;-69
2022/01/27 11:28:46;;;;;;;5.38;2.60;;;18.30;48.50;;;;;;4989754;28;99156;-69
2022/01/27 11:31:29;;;;;;;5.93;2.63;;;18.30;48.50;;;;;;4990233;28;98907;-69
2022/01/27 11:34:02;;;;;;;9.20;2.60;;;18.30;48.50;;;;;;4988461;28;100866;-68
2022/01/27 11:36:29;;;;;;;7.43;2.87;;;18.30;48.50;;;;;;4989200;28;99419;-69
2022/01/27 11:38:56;;;;;;;6.20;2.10;;;18.20;48.50;;;;;;4989513;28;99046;-69
2022/01/27 11:41:40;;;;;;;8.27;2.65;;;18.20;48.50;;;;;;4991476;28;98885;-69
2022/01/27 11:44:36;;;;;;;7.63;2.90;;;18.20;48.70;;;;;;4989503;28;100628;-70
2022/01/27 11:47:08;;;;;;;4.97;2.60;;;18.20;49.10;;;;;;4989270;28;99532;-67
2022/01/27 11:50:01;;;;;;;6.10;2.53;;;18.20;49.40;;;;;;4989972;28;99242;-69
2022/01/27 11:52:29;;;;;;;;;;;18.20;49.60;;;;;;4990823;28;98370;-68
2022/01/27 11:54:56;;;;;;;4.68;2.42;;;18.20;49.70;;;;;;4991504;28;99018;-68
2022/01/27 11:57:45;;;;;;;6.13;2.45;;;18.20;50.80;;;;;;4989674;28;99320;-69
2022/01/27 12:00:17;;;;;;;5.43;2.50;;;18.20;50.10;;;;;;4990421;28;99376;-68
2022/01/27 12:03:03;;;;;;;5.20;2.35;;;18.20;50.00;;;;;;4972091;28;98847;-69
2022/01/27 12:05:31;;;;;;;7.55;2.55;;;18.10;50.10;;;;;;4974476;28;99667;-69
2022/01/27 12:08:15;;;;;;;7.75;2.75;;;18.10;50.20;;;;;;4989319;28;99225;-68
2022/01/27 12:11:08;;;;;;;8.48;2.60;;;18.10;50.20;;;;;;4989741;28;98697;-69
2022/01/27 12:13:41;;;;;;;7.22;2.50;;;18.10;50.20;;;;;;4984270;28;98757;-68
2022/01/27 12:16:39;;;;;;;5.15;2.55;;;18.10;50.30;;;;;;4989029;28;100724;-69
2022/01/27 12:19:10;;;;;;;5.28;2.35;;;18.10;50.30;;;;;;4989377;28;98733;-68
2022/01/27 12:21:56;;;;;;;4.72;2.50;;;18.10;50.40;;;;;;4990432;28;98729;-69
2022/01/27 12:24:29;;;;;;;5.47;2.40;;;18.00;50.50;;;;;;4989251;28;99002;-67
2022/01/27 12:27:04;;;;;;;6.70;2.55;;;18.00;50.50;;;;;;4989434;28;100678;-69
2022/01/27 12:29:46;;;;;;;4.70;2.17;;;18.00;51.60;;;;;;4988396;28;99726;-68
2022/01/27 12:32:32;;;;;;;5.93;2.30;;;18.00;50.70;;;;;;4989787;28;98885;-68
2022/01/27 12:35:01;;;;;;;5.07;2.35;;;18.00;50.70;;;;;;4990475;28;98624;-68
2022/01/27 12:37:35;;;;;;;6.55;2.40;;;18.00;50.70;;;;;;4988173;28;100162;-70
2022/01/27 12:40:14;;;;;;;4.72;2.20;;;18.00;50.70;;;;;;4988823;28;100295;-70
2022/01/27 12:42:55;;;;;;;5.78;2.22;;;18.00;50.80;;;;;;4988640;28;99058;-68
2022/01/27 12:45:26;;;;;;;3.90;1.75;;;18.10;50.80;;;;;;4989847;28;98219;-69
2022/01/27 12:47:52;;;;;;;4.72;2.20;;;18.10;50.80;;;;;;4987693;28;100890;-70
2022/01/27 12:50:22;;;;;;;6.40;2.40;;;18.10;50.70;;;;;;4987484;28;98881;-69
2022/01/27 12:52:57;;;;;;;7.00;1.90;;;18.20;50.80;;;;;;4988944;28;99224;-68
2022/01/27 12:55:31;;;;;;;6.55;2.38;;;18.20;50.80;;;;;;4990626;28;98538;-68
2022/01/27 12:58:00;;;;;;;4.50;1.90;;;18.20;50.80;;;;;;4993273;28;99161;-68
2022/01/27 13:00:28;;;;;;;7.00;2.47;;;18.20;50.60;;;;;;4992553;28;99168;-67
2022/01/27 13:03:01;;;;;;;6.18;1.95;;;18.20;50.60;;;;;;4993086;28;99076;-69
2022/01/27 13:05:47;;;;;;;7.20;2.25;;;18.30;50.60;;;;;;4989764;28;99202;-70
2022/01/27 13:08:14;;;;;;;4.85;2.05;;;18.30;50.70;;;;;;4989580;28;100636;-68
2022/01/27 13:10:53;;;;;;;5.55;1.95;;;18.30;50.60;;;;;;4987955;28;98935;-69
2022/01/27 13:13:24;;;;;;;3.47;1.73;;;18.40;50.70;;;;;;4989111;28;99111;-69
2022/01/27 13:16:08;;;;;;;4.45;1.83;;;18.40;51.60;;;;;;4988984;28;98768;-68
2022/01/27 13:18:49;;;;;;;6.57;2.15;;;18.40;50.60;;;;;;4987863;28;100261;-68
2022/01/27 13:21:21;;;;;;;6.63;2.10;;;18.50;50.60;;;;;;4987227;28;99847;-69
2022/01/27 13:23:47;;;;;;;5.57;2.20;;;18.50;50.60;;;;;;4987680;28;99819;-70
2022/01/27 13:26:16;;;;;;;4.60;1.75;;;18.50;50.60;;;;;;4988733;28;99147;-70
2022/01/27 13:28:43;;;;;;;5.45;1.98;;;18.50;50.50;;;;;;4987211;28;100811;-69
2022/01/27 13:31:13;;;;;;;5.18;1.92;;;18.50;50.60;;;;;;4986832;28;100055;-70
2022/01/27 13:33:41;;;;;;;4.15;1.60;;;18.50;50.70;;;;;;4987513;28;99012;-68
2022/01/27 13:36:15;;;;;;;3.97;1.77;;;18.50;50.70;;;;;;4989284;28;97789;-69
2022/01/27 13:39:11;;;;;;;5.57;1.83;;;18.50;50.50;;;;;;4987427;28;99739;-69
2022/01/27 13:41:41;;;;;;;5.78;1.95;;;18.50;50.50;;;;;;4988120;28;99433;-69
2022/01/27 13:44:15;;;;;;;4.68;1.90;;;18.50;50.50;;;;;;4986818;28;99293;-70
2022/01/27 13:46:54;;;;;;;9.82;1.92;;;18.50;50.50;;;;;;4987319;28;98589;-70
2022/01/27 13:49:27;;;;;;;3.53;1.70;;;18.60;50.30;;;;;;4987176;28;101137;-69
2022/01/27 13:52:16;;;;;;;6.43;1.90;;;18.60;50.30;;;;;;4988398;28;100015;-70
2022/01/27 13:54:46;;;;;;;4.10;1.67;;;18.60;50.10;;;;;;4987792;28;98953;-70
2022/01/27 13:57:17;;;;;;;6.65;1.80;;;18.60;50.00;;;;;;4988821;28;98555;-70
2022/01/27 13:59:59;;;;;;;4.90;1.60;;;18.60;49.90;;;;;;4987655;28;100206;-70
2022/01/27 14:02:35;;;;;;;4.28;1.95;;;18.60;49.90;;;;;;4987853;28;100535;-70
2022/01/27 14:05:13;;;;;;;5.45;1.73;;;18.60;49.90;;;;;;4988442;28;98615;-68
2022/01/27 14:07:43;;;;;;;4.35;1.60;;;18.70;49.70;;;;;;4987521;28;99129;-69
2022/01/27 14:10:18;;;;;;;4.68;1.80;;;18.70;49.60;;;;;;4987029;28;101329;-70
2022/01/27 14:13:10;;;;;;;5.13;1.98;;;18.70;49.50;;;;;;4987390;28;101239;-70
2022/01/27 14:15:52;;;;;;;4.30;1.60;;;18.80;50.40;;;;;;4988821;28;98893;-70
2022/01/27 14:18:29;;;;;;;5.88;1.73;;;18.80;49.20;;;;;;4987975;28;98781;-69
2022/01/27 14:20:56;;;;;;;5.78;1.65;;;18.80;49.10;;;;;;4987748;28;99131;-68
2022/01/27 14:29:03;;;;;;;4.38;1.48;;;18.90;48.70;;;;;;4986214;28;98426;-67
2022/01/27 14:31:29;;;;;;;5.15;1.58;;;19.00;48.50;;;;;;4986601;28;101090;-69
2022/01/27 14:33:55;;;;;;;5.72;1.70;;;19.00;48.40;;;;;;4986510;28;100199;-71
2022/01/27 14:36:22;;;;;;;6.47;1.75;;;19.00;48.30;;;;;;4987122;28;99824;-68
2022/01/27 14:38:48;;;;;;;4.72;1.90;;;19.00;48.10;;;;;;4987686;28;98603;-68
2022/01/27 14:41:15;;;;;;;3.80;1.35;;;19.10;48.10;;;;;;4988129;28;100175;-69
2022/01/27 14:43:42;;;;;;;4.38;1.40;;;19.10;47.90;;;;;;4989607;28;98671;-67
2022/01/27 14:46:12;;;;;;;5.22;1.60;;;19.10;47.90;;;;;;4992377;28;98617;-66
2022/01/27 14:48:42;;;;;;;5.38;1.95;;;19.10;47.80;;;;;;4988072;28;99082;-67
2022/01/27 14:51:09;;;;;;;8.15;1.67;;;19.10;47.80;;;;;;4987232;28;99651;-67
2022/01/27 14:53:36;;;;;;;6.82;1.70;;;19.10;47.80;;;;;;4988181;28;98786;-67
2022/01/27 14:56:04;;;;;;;5.20;1.70;;;19.10;47.80;;;;;;4987865;28;98958;-67
2022/01/27 14:58:30;;;;;;;4.95;1.63;;;19.10;47.70;;;;;;4990481;28;98623;-67
2022/01/27 15:00:56;;;;;;;8.23;2.20;;;19.20;47.60;;;;;;4990717;28;99890;-67
2022/01/27 15:03:21;;;;;;;4.75;1.50;;;19.20;47.60;;;;;;4990508;28;99545;-68
2022/01/27 15:05:47;;;;;;;4.47;1.77;;;19.20;47.50;;;;;;4990973;28;99083;-67
2022/01/27 15:08:13;;;;;;;4.68;1.58;;;19.20;47.40;;;;;;4990216;28;98957;-67
2022/01/27 15:10:40;;;;;;;4.60;1.60;;;19.30;47.40;;;;;;4990719;28;99250;-68
2022/01/27 15:13:12;;;;;;;5.18;1.73;;;19.30;47.30;;;;;;4989681;28;100276;-67
2022/01/27 15:21:07;;;;;;;6.75;2.10;;;19.30;47.10;;;;;;4989918;28;98865;-67
2022/01/27 15:23:35;;;;;;;5.65;1.75;;;19.20;47.00;;;;;;4990351;28;98967;-68